sensor_id;sensor_type;location;lat;lon;timestamp;pressure;altitude;pressure_sealevel;temperature;humidity
74794;BME280;63320;50.768;6.724;2022-12-07T00:00:25;100386.75;;;3.93;87.82
74794;BME280;63320;50.768;6.724;2022-12-07T00:02:51;100384.16;;;3.93;87.71
74794;BME280;63320;50.768;6.724;2022-12-07T00:05:16;100386.72;;;3.95;87.98
74794;BME280;63320;50.768;6.724;2022-12-07T00:07:43;100383.19;;;3.99;87.35
74794;BME280;63320;50.768;6.724;2022-12-07T00:10:08;100379.81;;;3.94;87.82
74794;BME280;63320;50.768;6.724;2022-12-07T00:12:34;100379.84;;;3.92;87.74
74794;BME280;63320;50.768;6.724;2022-12-07T00:14:59;100382.47;;;3.89;88.16
74794;BME280;63320;50.768;6.724;2022-12-07T00:17:24;100385.91;;;3.91;87.82
74794;BME280;63320;50.768;6.724;2022-12-07T00:19:50;100371.19;;;3.90;87.98
74794;BME280;63320;50.768;6.724;2022-12-07T00:22:15;100377.41;;;3.83;88.11
74794;BME280;63320;50.768;6.724;2022-12-07T00:24:42;100372.94;;;3.89;88.10
74794;BME280;63320;50.768;6.724;2022-12-07T00:27:07;100380.81;;;3.85;88.20
74794;BME280;63320;50.768;6.724;2022-12-07T00:29:32;100370.50;;;3.82;88.44
74794;BME280;63320;50.768;6.724;2022-12-07T00:31:58;100369.72;;;3.77;88.73
74794;BME280;63320;50.768;6.724;2022-12-07T00:34:23;100364.47;;;3.78;88.75
74794;BME280;63320;50.768;6.724;2022-12-07T00:36:49;100361.84;;;3.80;88.94
74794;BME280;63320;50.768;6.724;2022-12-07T00:39:15;100356.63;;;3.80;88.71
74794;BME280;63320;50.768;6.724;2022-12-07T00:41:41;100355.81;;;3.78;88.54
74794;BME280;63320;50.768;6.724;2022-12-07T00:44:07;100354.88;;;3.82;88.58
74794;BME280;63320;50.768;6.724;2022-12-07T00:46:32;100355.66;;;3.87;88.72
74794;BME280;63320;50.768;6.724;2022-12-07T00:48:57;100347.94;;;3.82;88.28
74794;BME280;63320;50.768;6.724;2022-12-07T00:51:24;100351.41;;;3.83;88.64
74794;BME280;63320;50.768;6.724;2022-12-07T00:53:50;100346.13;;;3.86;88.49
74794;BME280;63320;50.768;6.724;2022-12-07T00:56:18;100346.81;;;3.96;88.53
74794;BME280;63320;50.768;6.724;2022-12-07T00:58:49;100350.25;;;3.96;87.95
74794;BME280;63320;50.768;6.724;2022-12-07T01:01:15;100339.16;;;3.88;88.29
74794;BME280;63320;50.768;6.724;2022-12-07T01:03:40;100346.97;;;3.86;88.26
74794;BME280;63320;50.768;6.724;2022-12-07T01:06:06;100347.94;;;3.82;88.35
74794;BME280;63320;50.768;6.724;2022-12-07T01:08:32;100339.16;;;3.86;88.20
74794;BME280;63320;50.768;6.724;2022-12-07T01:10:58;100341.81;;;3.85;88.41
74794;BME280;63320;50.768;6.724;2022-12-07T01:13:24;100344.03;;;4.05;88.52
74794;BME280;63320;50.768;6.724;2022-12-07T01:15:51;100340.88;;;3.89;88.01
74794;BME280;63320;50.768;6.724;2022-12-07T01:18:16;100354.78;;;3.86;88.21
74794;BME280;63320;50.768;6.724;2022-12-07T01:20:41;100352.28;;;3.80;88.80
74794;BME280;63320;50.768;6.724;2022-12-07T01:23:07;100352.25;;;3.83;88.49
74794;BME280;63320;50.768;6.724;2022-12-07T01:25:32;100360.78;;;3.92;88.87
74794;BME280;63320;50.768;6.724;2022-12-07T01:27:57;100366.88;;;3.89;88.79
74794;BME280;63320;50.768;6.724;2022-12-07T01:30:23;100362.56;;;3.86;89.28
74794;BME280;63320;50.768;6.724;2022-12-07T01:32:49;100352.22;;;3.85;89.11
74794;BME280;63320;50.768;6.724;2022-12-07T01:35:15;100352.09;;;3.91;88.86
74794;BME280;63320;50.768;6.724;2022-12-07T01:37:40;100355.59;;;3.90;88.68
74794;BME280;63320;50.768;6.724;2022-12-07T01:40:07;100353.75;;;3.95;88.52
74794;BME280;63320;50.768;6.724;2022-12-07T01:42:33;100361.72;;;3.87;89.14
74794;BME280;63320;50.768;6.724;2022-12-07T01:45:38;100361.69;;;3.89;89.10
74794;BME280;63320;50.768;6.724;2022-12-07T01:48:07;100354.66;;;3.94;89.04
74794;BME280;63320;50.768;6.724;2022-12-07T01:50:35;100367.63;;;3.96;88.64
74794;BME280;63320;50.768;6.724;2022-12-07T01:53:03;100363.25;;;3.96;88.92
74794;BME280;63320;50.768;6.724;2022-12-07T01:55:30;100358.00;;;3.99;88.75
74794;BME280;63320;50.768;6.724;2022-12-07T01:57:56;100356.34;;;3.95;88.83
74794;BME280;63320;50.768;6.724;2022-12-07T02:00:22;100351.03;;;4.01;88.61
74794;BME280;63320;50.768;6.724;2022-12-07T02:02:51;100350.25;;;3.98;88.97
74794;BME280;63320;50.768;6.724;2022-12-07T02:05:19;100348.47;;;4.00;89.08
74794;BME280;63320;50.768;6.724;2022-12-07T02:07:46;100352.00;;;3.96;89.09
74794;BME280;63320;50.768;6.724;2022-12-07T02:10:14;100344.25;;;3.94;89.16
74794;BME280;63320;50.768;6.724;2022-12-07T02:12:39;100337.31;;;3.93;89.33
74794;BME280;63320;50.768;6.724;2022-12-07T02:15:06;100339.94;;;3.93;89.36
74794;BME280;63320;50.768;6.724;2022-12-07T02:17:36;100336.09;;;4.11;89.14
74794;BME280;63320;50.768;6.724;2022-12-07T02:20:22;100334.63;;;3.98;88.73
74794;BME280;63320;50.768;6.724;2022-12-07T02:23:04;100336.94;;;4.11;88.98
74794;BME280;63320;50.768;6.724;2022-12-07T02:25:52;100337.28;;;3.95;89.10
74794;BME280;63320;50.768;6.724;2022-12-07T02:28:26;100331.19;;;3.97;88.97
74794;BME280;63320;50.768;6.724;2022-12-07T02:30:58;100331.78;;;4.10;88.69
74794;BME280;63320;50.768;6.724;2022-12-07T02:33:28;100333.31;;;4.20;88.25
74794;BME280;63320;50.768;6.724;2022-12-07T02:35:58;100328.41;;;4.05;88.11
74794;BME280;63320;50.768;6.724;2022-12-07T02:38:26;100336.19;;;4.06;88.54
74794;BME280;63320;50.768;6.724;2022-12-07T02:41:00;100329.97;;;4.13;88.60
74794;BME280;63320;50.768;6.724;2022-12-07T02:43:31;100341.50;;;4.00;88.63
74794;BME280;63320;50.768;6.724;2022-12-07T02:46:03;100330.22;;;4.01;88.98
74794;BME280;63320;50.768;6.724;2022-12-07T02:48:31;100332.84;;;4.00;89.59
74794;BME280;63320;50.768;6.724;2022-12-07T02:50:57;100327.59;;;4.03;89.53
74794;BME280;63320;50.768;6.724;2022-12-07T02:53:30;100329.25;;;4.07;89.09
74794;BME280;63320;50.768;6.724;2022-12-07T02:55:56;100322.53;;;3.95;89.46
74794;BME280;63320;50.768;6.724;2022-12-07T02:58:31;100323.31;;;4.00;89.69
74794;BME280;63320;50.768;6.724;2022-12-07T03:01:08;100328.38;;;4.06;89.36
74794;BME280;63320;50.768;6.724;2022-12-07T03:03:37;100331.19;;;3.96;89.64
74794;BME280;63320;50.768;6.724;2022-12-07T03:06:12;100330.34;;;3.95;89.62
74794;BME280;63320;50.768;6.724;2022-12-07T03:08:50;100326.91;;;3.93;89.93
74794;BME280;63320;50.768;6.724;2022-12-07T03:11:24;100334.69;;;3.95;90.14
74794;BME280;63320;50.768;6.724;2022-12-07T03:13:55;100329.59;;;3.88;89.96
74794;BME280;63320;50.768;6.724;2022-12-07T03:16:27;100333.06;;;3.89;89.89
74794;BME280;63320;50.768;6.724;2022-12-07T03:18:55;100323.56;;;3.86;90.02
74794;BME280;63320;50.768;6.724;2022-12-07T03:21:24;100328.69;;;3.91;90.26
74794;BME280;63320;50.768;6.724;2022-12-07T03:23:55;100326.97;;;3.90;90.31
74794;BME280;63320;50.768;6.724;2022-12-07T03:26:24;100326.06;;;3.93;89.82
74794;BME280;63320;50.768;6.724;2022-12-07T03:28:52;100327.72;;;3.95;89.83
74794;BME280;63320;50.768;6.724;2022-12-07T03:31:22;100325.00;;;4.01;89.65
74794;BME280;63320;50.768;6.724;2022-12-07T03:33:54;100326.75;;;4.01;89.71
74794;BME280;63320;50.768;6.724;2022-12-07T03:36:25;100321.47;;;4.05;89.87
74794;BME280;63320;50.768;6.724;2022-12-07T03:38:55;100326.84;;;3.96;89.79
74794;BME280;63320;50.768;6.724;2022-12-07T03:41:25;100330.34;;;3.97;89.90
74794;BME280;63320;50.768;6.724;2022-12-07T03:43:51;100332.69;;;4.09;89.47
74794;BME280;63320;50.768;6.724;2022-12-07T03:46:21;100333.75;;;3.99;89.63
74794;BME280;63320;50.768;6.724;2022-12-07T03:48:57;100328.66;;;3.93;89.96
74794;BME280;63320;50.768;6.724;2022-12-07T03:51:28;100338.19;;;3.94;90.01
74794;BME280;63320;50.768;6.724;2022-12-07T03:54:00;100325.22;;;3.90;90.05
74794;BME280;63320;50.768;6.724;2022-12-07T03:56:27;100328.63;;;3.94;90.10
74794;BME280;63320;50.768;6.724;2022-12-07T03:58:54;100329.66;;;3.87;89.95
74794;BME280;63320;50.768;6.724;2022-12-07T04:01:19;100339.94;;;3.93;90.24
74794;BME280;63320;50.768;6.724;2022-12-07T04:03:45;100331.28;;;3.93;90.33
74794;BME280;63320;50.768;6.724;2022-12-07T04:06:12;100333.97;;;3.88;90.21
74794;BME280;63320;50.768;6.724;2022-12-07T04:08:37;100330.41;;;3.90;89.91
74794;BME280;63320;50.768;6.724;2022-12-07T04:11:02;100324.34;;;3.92;90.35
74794;BME280;63320;50.768;6.724;2022-12-07T04:13:28;100320.91;;;3.89;90.26
74794;BME280;63320;50.768;6.724;2022-12-07T04:15:53;100320.94;;;3.88;90.01
74794;BME280;63320;50.768;6.724;2022-12-07T04:18:18;100321.81;;;3.88;90.39
74794;BME280;63320;50.768;6.724;2022-12-07T04:20:45;100317.53;;;3.84;90.23
74794;BME280;63320;50.768;6.724;2022-12-07T04:23:12;100321.88;;;3.84;89.93
74794;BME280;63320;50.768;6.724;2022-12-07T04:25:37;100318.34;;;3.88;90.00
74794;BME280;63320;50.768;6.724;2022-12-07T04:28:03;100323.59;;;3.85;89.81
74794;BME280;63320;50.768;6.724;2022-12-07T04:30:28;100314.81;;;3.92;89.40
74794;BME280;63320;50.768;6.724;2022-12-07T04:32:54;100312.22;;;3.92;89.45
74794;BME280;63320;50.768;6.724;2022-12-07T04:35:20;100312.38;;;3.83;89.76
74794;BME280;63320;50.768;6.724;2022-12-07T04:37:45;100320.06;;;3.89;89.56
74794;BME280;63320;50.768;6.724;2022-12-07T04:40:12;100321.84;;;3.87;89.42
74794;BME280;63320;50.768;6.724;2022-12-07T04:42:37;100314.84;;;3.89;89.50
74794;BME280;63320;50.768;6.724;2022-12-07T04:45:04;100317.53;;;3.84;89.59
74794;BME280;63320;50.768;6.724;2022-12-07T04:47:29;100317.63;;;3.80;89.37
74794;BME280;63320;50.768;6.724;2022-12-07T04:49:55;100316.84;;;3.75;89.35
74794;BME280;63320;50.768;6.724;2022-12-07T04:52:20;100310.84;;;3.71;89.87
74794;BME280;63320;50.768;6.724;2022-12-07T04:54:45;100312.53;;;3.74;89.62
74794;BME280;63320;50.768;6.724;2022-12-07T04:57:12;100308.97;;;3.79;89.38
74794;BME280;63320;50.768;6.724;2022-12-07T04:59:37;100307.31;;;3.75;89.27
74794;BME280;63320;50.768;6.724;2022-12-07T05:02:03;100304.69;;;3.77;89.15
74794;BME280;63320;50.768;6.724;2022-12-07T05:04:28;100306.44;;;3.75;89.47
74794;BME280;63320;50.768;6.724;2022-12-07T05:06:54;100316.84;;;3.75;89.25
74794;BME280;63320;50.768;6.724;2022-12-07T05:09:19;100321.19;;;3.74;89.09
74794;BME280;63320;50.768;6.724;2022-12-07T05:11:44;100317.06;;;3.64;88.93
74794;BME280;63320;50.768;6.724;2022-12-07T05:14:14;100313.31;;;3.79;88.78
74794;BME280;63320;50.768;6.724;2022-12-07T05:16:41;100311.03;;;3.62;88.91
74794;BME280;63320;50.768;6.724;2022-12-07T05:19:07;100312.94;;;3.52;89.42
74794;BME280;63320;50.768;6.724;2022-12-07T05:21:32;100312.88;;;3.57;89.18
74794;BME280;63320;50.768;6.724;2022-12-07T05:23:58;100319.00;;;3.51;89.20
74794;BME280;63320;50.768;6.724;2022-12-07T05:26:23;100321.63;;;3.50;89.69
74794;BME280;63320;50.768;6.724;2022-12-07T05:28:52;100328.63;;;3.46;89.88
74794;BME280;63320;50.768;6.724;2022-12-07T05:31:19;100319.91;;;3.50;89.31
74794;BME280;63320;50.768;6.724;2022-12-07T05:33:45;100319.97;;;3.47;89.31
74794;BME280;63320;50.768;6.724;2022-12-07T05:36:11;100322.34;;;3.59;89.21
74794;BME280;63320;50.768;6.724;2022-12-07T05:38:36;100324.00;;;3.63;88.92
74794;BME280;63320;50.768;6.724;2022-12-07T05:41:02;100324.19;;;3.51;88.85
74794;BME280;63320;50.768;6.724;2022-12-07T05:43:27;100326.91;;;3.45;89.25
74794;BME280;63320;50.768;6.724;2022-12-07T05:45:52;100326.13;;;3.42;89.18
74794;BME280;63320;50.768;6.724;2022-12-07T05:48:19;100320.06;;;3.41;89.23
74794;BME280;63320;50.768;6.724;2022-12-07T05:50:47;100316.63;;;3.39;89.83
74794;BME280;63320;50.768;6.724;2022-12-07T05:53:12;100320.09;;;3.40;89.50
74794;BME280;63320;50.768;6.724;2022-12-07T05:55:37;100334.81;;;3.39;90.02
74794;BME280;63320;50.768;6.724;2022-12-07T05:58:03;100330.56;;;3.36;89.83
74794;BME280;63320;50.768;6.724;2022-12-07T06:00:28;100323.47;;;3.45;90.38
74794;BME280;63320;50.768;6.724;2022-12-07T06:02:53;100323.53;;;3.40;90.68
74794;BME280;63320;50.768;6.724;2022-12-07T06:05:20;100324.47;;;3.37;90.97
74794;BME280;63320;50.768;6.724;2022-12-07T06:07:45;100327.78;;;3.46;90.59
74794;BME280;63320;50.768;6.724;2022-12-07T06:10:11;100332.97;;;3.47;90.61
74794;BME280;63320;50.768;6.724;2022-12-07T06:12:36;100325.00;;;3.55;89.94
74794;BME280;63320;50.768;6.724;2022-12-07T06:15:02;100325.78;;;3.61;90.44
74794;BME280;63320;50.768;6.724;2022-12-07T06:17:27;100321.84;;;3.87;89.96
74794;BME280;63320;50.768;6.724;2022-12-07T06:19:53;100329.09;;;3.70;89.35
74794;BME280;63320;50.768;6.724;2022-12-07T06:22:19;100329.66;;;3.87;89.44
74794;BME280;63320;50.768;6.724;2022-12-07T06:24:45;100329.66;;;3.87;89.21
74794;BME280;63320;50.768;6.724;2022-12-07T06:27:10;100333.56;;;4.06;88.45
74794;BME280;63320;50.768;6.724;2022-12-07T06:29:36;100324.78;;;4.13;88.38
74794;BME280;63320;50.768;6.724;2022-12-07T06:32:01;100329.41;;;3.99;88.70
74794;BME280;63320;50.768;6.724;2022-12-07T06:34:26;100334.28;;;3.70;89.86
74794;BME280;63320;50.768;6.724;2022-12-07T06:36:52;100330.91;;;3.64;89.98
74794;BME280;63320;50.768;6.724;2022-12-07T06:39:19;100323.16;;;3.63;90.02
74794;BME280;63320;50.768;6.724;2022-12-07T06:41:45;100326.47;;;3.70;90.28
74794;BME280;63320;50.768;6.724;2022-12-07T06:44:10;100328.19;;;3.71;89.94
74794;BME280;63320;50.768;6.724;2022-12-07T06:46:36;100332.03;;;3.50;90.29
74794;BME280;63320;50.768;6.724;2022-12-07T06:49:01;100325.50;;;3.77;90.13
74794;BME280;63320;50.768;6.724;2022-12-07T06:51:27;100330.88;;;3.66;90.14
74794;BME280;63320;50.768;6.724;2022-12-07T06:53:52;100339.38;;;3.77;90.17
74794;BME280;63320;50.768;6.724;2022-12-07T06:56:19;100336.22;;;3.58;89.95
74794;BME280;63320;50.768;6.724;2022-12-07T06:58:44;100342.44;;;3.50;90.19
74794;BME280;63320;50.768;6.724;2022-12-07T07:01:11;100345.00;;;3.51;90.11
74794;BME280;63320;50.768;6.724;2022-12-07T07:03:36;100333.66;;;3.57;89.82
74794;BME280;63320;50.768;6.724;2022-12-07T07:06:01;100335.50;;;3.50;90.59
74794;BME280;63320;50.768;6.724;2022-12-07T07:08:27;100334.44;;;3.60;90.17
74794;BME280;63320;50.768;6.724;2022-12-07T07:10:52;100329.97;;;3.69;89.87
74794;BME280;63320;50.768;6.724;2022-12-07T07:13:19;100321.34;;;3.67;89.69
74794;BME280;63320;50.768;6.724;2022-12-07T07:15:44;100327.63;;;3.55;89.79
74794;BME280;63320;50.768;6.724;2022-12-07T07:18:10;100340.50;;;3.62;90.02
74794;BME280;63320;50.768;6.724;2022-12-07T07:20:35;100345.81;;;3.55;89.72
74794;BME280;63320;50.768;6.724;2022-12-07T07:23:01;100339.44;;;3.71;89.42
74794;BME280;63320;50.768;6.724;2022-12-07T07:25:27;100336.63;;;3.83;89.02
74794;BME280;63320;50.768;6.724;2022-12-07T07:27:52;100341.88;;;3.80;88.99
74794;BME280;63320;50.768;6.724;2022-12-07T07:30:19;100347.22;;;3.74;88.53
74794;BME280;63320;50.768;6.724;2022-12-07T07:32:44;100346.59;;;3.61;88.88
74794;BME280;63320;50.768;6.724;2022-12-07T07:35:09;100345.78;;;3.58;89.26
74794;BME280;63320;50.768;6.724;2022-12-07T07:37:35;100346.50;;;3.64;89.35
74794;BME280;63320;50.768;6.724;2022-12-07T07:40:00;100343.28;;;3.52;89.52
74794;BME280;63320;50.768;6.724;2022-12-07T07:42:25;100344.97;;;3.54;89.31
74794;BME280;63320;50.768;6.724;2022-12-07T07:44:51;100350.13;;;3.56;89.54
74794;BME280;63320;50.768;6.724;2022-12-07T07:47:17;100348.44;;;3.53;89.81
74794;BME280;63320;50.768;6.724;2022-12-07T07:49:43;100353.81;;;3.44;89.64
74794;BME280;63320;50.768;6.724;2022-12-07T07:52:08;100360.53;;;3.57;89.41
74794;BME280;63320;50.768;6.724;2022-12-07T07:54:33;100363.97;;;3.56;88.84
74794;BME280;63320;50.768;6.724;2022-12-07T07:56:59;100360.00;;;3.35;89.27
74794;BME280;63320;50.768;6.724;2022-12-07T07:59:24;100361.91;;;3.24;89.44
74794;BME280;63320;50.768;6.724;2022-12-07T08:01:49;100361.91;;;3.24;89.62
74794;BME280;63320;50.768;6.724;2022-12-07T08:04:16;100363.56;;;3.30;89.80
74794;BME280;63320;50.768;6.724;2022-12-07T08:06:42;100360.06;;;3.32;89.61
74794;BME280;63320;50.768;6.724;2022-12-07T08:09:07;100358.19;;;3.42;89.94
74794;BME280;63320;50.768;6.724;2022-12-07T08:11:32;100356.44;;;3.41;89.44
74794;BME280;63320;50.768;6.724;2022-12-07T08:13:58;100356.38;;;3.46;89.40
74794;BME280;63320;50.768;6.724;2022-12-07T08:16:23;100357.13;;;3.51;88.99
74794;BME280;63320;50.768;6.724;2022-12-07T08:18:48;100347.59;;;3.53;88.49
74794;BME280;63320;50.768;6.724;2022-12-07T08:21:15;100344.28;;;3.43;88.87
74794;BME280;63320;50.768;6.724;2022-12-07T08:23:41;100350.19;;;3.53;89.40
74794;BME280;63320;50.768;6.724;2022-12-07T08:26:08;100352.09;;;3.43;88.73
74794;BME280;63320;50.768;6.724;2022-12-07T08:28:35;100353.94;;;3.36;88.72
74794;BME280;63320;50.768;6.724;2022-12-07T08:31:01;100358.06;;;3.48;88.97
74794;BME280;63320;50.768;6.724;2022-12-07T08:33:27;100363.28;;;3.48;89.16
74794;BME280;63320;50.768;6.724;2022-12-07T08:35:52;100357.91;;;3.57;88.70
74794;BME280;63320;50.768;6.724;2022-12-07T08:38:19;100356.78;;;3.71;88.69
74794;BME280;63320;50.768;6.724;2022-12-07T08:40:45;100363.78;;;3.69;88.68
74794;BME280;63320;50.768;6.724;2022-12-07T08:43:10;100357.66;;;3.71;88.62
74794;BME280;63320;50.768;6.724;2022-12-07T08:45:35;100350.63;;;3.78;88.67
74794;BME280;63320;50.768;6.724;2022-12-07T08:48:03;100365.22;;;3.85;88.54
74794;BME280;63320;50.768;6.724;2022-12-07T08:50:32;100355.66;;;3.85;89.19
74794;BME280;63320;50.768;6.724;2022-12-07T08:52:59;100356.31;;;3.98;88.74
74794;BME280;63320;50.768;6.724;2022-12-07T08:55:27;100358.94;;;3.95;88.82
74794;BME280;63320;50.768;6.724;2022-12-07T08:57:53;100358.94;;;3.95;88.75
74794;BME280;63320;50.768;6.724;2022-12-07T09:00:19;100357.84;;;4.08;88.20
74794;BME280;63320;50.768;6.724;2022-12-07T09:02:45;100354.66;;;3.94;88.25
74794;BME280;63320;50.768;6.724;2022-12-07T09:05:11;100358.13;;;3.93;88.11
74794;BME280;63320;50.768;6.724;2022-12-07T09:07:37;100349.56;;;3.88;88.18
74794;BME280;63320;50.768;6.724;2022-12-07T09:10:04;100353.81;;;3.92;88.59
74794;BME280;63320;50.768;6.724;2022-12-07T09:12:31;100358.19;;;3.90;88.45
74794;BME280;63320;50.768;6.724;2022-12-07T09:14:57;100353.06;;;3.87;88.20
74794;BME280;63320;50.768;6.724;2022-12-07T09:17:22;100356.22;;;4.01;88.24
74794;BME280;63320;50.768;6.724;2022-12-07T09:19:47;100358.06;;;3.96;88.30
74794;BME280;63320;50.768;6.724;2022-12-07T09:22:13;100362.25;;;4.05;88.41
74794;BME280;63320;50.768;6.724;2022-12-07T09:24:38;100356.06;;;4.10;88.29
74794;BME280;63320;50.768;6.724;2022-12-07T09:27:04;100356.72;;;4.20;87.48
74794;BME280;63320;50.768;6.724;2022-12-07T09:29:30;100351.41;;;4.28;87.50
74794;BME280;63320;50.768;6.724;2022-12-07T09:31:56;100368.75;;;4.26;86.90
74794;BME280;63320;50.768;6.724;2022-12-07T09:34:21;100361.81;;;4.28;87.06
74794;BME280;63320;50.768;6.724;2022-12-07T09:36:46;100356.41;;;4.37;87.37
74794;BME280;63320;50.768;6.724;2022-12-07T09:39:12;100362.31;;;4.45;87.08
74794;BME280;63320;50.768;6.724;2022-12-07T09:41:38;100373.56;;;4.47;86.49
74794;BME280;63320;50.768;6.724;2022-12-07T09:44:10;100368.44;;;4.41;86.56
74794;BME280;63320;50.768;6.724;2022-12-07T09:46:40;100360.69;;;4.39;86.85
74794;BME280;63320;50.768;6.724;2022-12-07T09:49:11;100368.44;;;4.43;86.31
74794;BME280;63320;50.768;6.724;2022-12-07T09:51:37;100359.31;;;4.63;86.51
74794;BME280;63320;50.768;6.724;2022-12-07T09:54:03;100358.47;;;4.61;85.16
74794;BME280;63320;50.768;6.724;2022-12-07T09:56:29;100355.88;;;4.61;85.50
74794;BME280;63320;50.768;6.724;2022-12-07T09:58:59;100344.75;;;4.55;85.26
74794;BME280;63320;50.768;6.724;2022-12-07T10:01:24;100349.91;;;4.56;85.28
74794;BME280;63320;50.768;6.724;2022-12-07T10:03:54;100346.28;;;4.63;85.33
74794;BME280;63320;50.768;6.724;2022-12-07T10:06:20;100346.09;;;4.73;84.67
74794;BME280;63320;50.768;6.724;2022-12-07T10:08:46;100340.88;;;4.73;84.09
74794;BME280;63320;50.768;6.724;2022-12-07T10:11:11;100347.50;;;4.87;83.92
74794;BME280;63320;50.768;6.724;2022-12-07T10:13:38;100346.50;;;4.93;83.60
74794;BME280;63320;50.768;6.724;2022-12-07T10:16:05;100349.97;;;4.93;83.41
74794;BME280;63320;50.768;6.724;2022-12-07T10:18:32;100358.63;;;4.94;82.72
74794;BME280;63320;50.768;6.724;2022-12-07T10:21:14;100349.78;;;5.01;83.49
74794;BME280;63320;50.768;6.724;2022-12-07T10:23:41;100343.91;;;4.91;82.92
74794;BME280;63320;50.768;6.724;2022-12-07T10:26:20;100349.22;;;4.87;82.28
74794;BME280;63320;50.768;6.724;2022-12-07T10:28:46;100333.63;;;4.85;82.71
74794;BME280;63320;50.768;6.724;2022-12-07T10:31:16;100343.22;;;4.85;82.54
74794;BME280;63320;50.768;6.724;2022-12-07T10:33:49;100337.94;;;4.88;81.81
74794;BME280;63320;50.768;6.724;2022-12-07T10:36:20;100335.97;;;4.98;82.20
74794;BME280;63320;50.768;6.724;2022-12-07T10:38:48;100333.94;;;5.10;82.16
74794;BME280;63320;50.768;6.724;2022-12-07T10:41:14;100325.94;;;5.16;81.83
74794;BME280;63320;50.768;6.724;2022-12-07T10:43:47;100323.59;;;5.06;82.41
74794;BME280;63320;50.768;6.724;2022-12-07T10:46:32;100331.69;;;4.95;82.20
74794;BME280;63320;50.768;6.724;2022-12-07T10:49:15;100329.16;;;4.92;82.40
74794;BME280;63320;50.768;6.724;2022-12-07T10:51:51;100324.19;;;4.81;82.69
74794;BME280;63320;50.768;6.724;2022-12-07T10:54:25;100318.00;;;4.85;82.99
74794;BME280;63320;50.768;6.724;2022-12-07T10:57:15;100315.13;;;4.98;82.67
74794;BME280;63320;50.768;6.724;2022-12-07T11:00:09;100311.03;;;4.86;82.84
74794;BME280;63320;50.768;6.724;2022-12-07T11:02:54;100314.13;;;5.03;82.16
74794;BME280;63320;50.768;6.724;2022-12-07T11:05:28;100304.72;;;4.96;82.53
74794;BME280;63320;50.768;6.724;2022-12-07T11:08:03;100298.66;;;4.96;83.00
74794;BME280;63320;50.768;6.724;2022-12-07T11:10:37;100293.06;;;4.75;80.23
74794;BME280;63320;50.768;6.724;2022-12-07T11:13:16;100286.84;;;4.81;80.65
74794;BME280;63320;50.768;6.724;2022-12-07T11:15:58;100290.75;;;4.61;82.70
74794;BME280;63320;50.768;6.724;2022-12-07T11:18:28;100291.00;;;4.52;83.42
74794;BME280;63320;50.768;6.724;2022-12-07T11:21:04;100283.16;;;4.54;83.64
74794;BME280;63320;50.768;6.724;2022-12-07T11:23:42;100289.84;;;4.64;84.01
74794;BME280;63320;50.768;6.724;2022-12-07T11:26:14;100285.34;;;4.71;84.08
74794;BME280;63320;50.768;6.724;2022-12-07T11:28:58;100286.28;;;4.68;83.44
74794;BME280;63320;50.768;6.724;2022-12-07T11:31:48;100282.94;;;4.61;83.64
74794;BME280;63320;50.768;6.724;2022-12-07T11:34:24;100278.66;;;4.60;83.91
74794;BME280;63320;50.768;6.724;2022-12-07T11:36:54;100275.03;;;4.67;83.87
74794;BME280;63320;50.768;6.724;2022-12-07T11:39:26;100265.00;;;4.86;83.68
74794;BME280;63320;50.768;6.724;2022-12-07T11:41:56;100254.34;;;4.97;83.15
74794;BME280;63320;50.768;6.724;2022-12-07T11:44:31;100267.97;;;5.08;82.22
74794;BME280;63320;50.768;6.724;2022-12-07T11:47:02;100252.06;;;5.19;80.92
74794;BME280;63320;50.768;6.724;2022-12-07T11:49:40;100258.22;;;5.15;80.41
74794;BME280;63320;50.768;6.724;2022-12-07T11:52:16;100263.22;;;5.24;80.50
74794;BME280;63320;50.768;6.724;2022-12-07T11:54:45;100251.59;;;5.03;79.10
74794;BME280;63320;50.768;6.724;2022-12-07T11:57:16;100242.81;;;5.06;80.59
74794;BME280;63320;50.768;6.724;2022-12-07T11:59:45;100245.47;;;5.04;80.55
74794;BME280;63320;50.768;6.724;2022-12-07T12:02:15;100243.44;;;5.15;80.99
74794;BME280;63320;50.768;6.724;2022-12-07T12:04:49;100241.56;;;5.20;81.53
74794;BME280;63320;50.768;6.724;2022-12-07T12:07:21;100239.59;;;5.30;81.16
74794;BME280;63320;50.768;6.724;2022-12-07T12:09:51;100238.78;;;5.28;81.29
74794;BME280;63320;50.768;6.724;2022-12-07T12:12:30;100250.47;;;5.12;81.14
74794;BME280;63320;50.768;6.724;2022-12-07T12:15:13;100242.59;;;5.15;81.69
74794;BME280;63320;50.768;6.724;2022-12-07T12:18:16;100238.66;;;5.33;81.81
74794;BME280;63320;50.768;6.724;2022-12-07T12:20:49;100243.94;;;5.30;81.16
74794;BME280;63320;50.768;6.724;2022-12-07T12:23:18;100240.66;;;5.23;80.88
74794;BME280;63320;50.768;6.724;2022-12-07T12:25:48;100239.75;;;5.24;80.81
74794;BME280;63320;50.768;6.724;2022-12-07T12:28:26;100233.84;;;5.17;80.32
74794;BME280;63320;50.768;6.724;2022-12-07T12:31:10;100235.56;;;5.18;80.18
74794;BME280;63320;50.768;6.724;2022-12-07T12:33:37;100236.34;;;5.20;80.48
74794;BME280;63320;50.768;6.724;2022-12-07T12:36:23;100224.34;;;5.15;80.40
74794;BME280;63320;50.768;6.724;2022-12-07T12:38:50;100215.84;;;5.07;79.90
74794;BME280;63320;50.768;6.724;2022-12-07T12:44:43;100216.47;;;5.16;80.01
74794;BME280;63320;50.768;6.724;2022-12-07T12:47:52;100220.66;;;5.24;79.97
74794;BME280;63320;50.768;6.724;2022-12-07T12:50:20;100218.16;;;5.19;81.02
74794;BME280;63320;50.768;6.724;2022-12-07T12:56:15;100219.75;;;5.25;79.87
74794;BME280;63320;50.768;6.724;2022-12-07T12:58:44;100223.56;;;5.11;80.10
74794;BME280;63320;50.768;6.724;2022-12-07T13:01:39;100218.13;;;5.20;80.18
74794;BME280;63320;50.768;6.724;2022-12-07T13:04:17;100212.25;;;5.12;80.92
74794;BME280;63320;50.768;6.724;2022-12-07T13:06:43;100205.66;;;4.99;81.22
74794;BME280;63320;50.768;6.724;2022-12-07T13:09:18;100211.72;;;5.00;80.66
74794;BME280;63320;50.768;6.724;2022-12-07T13:11:46;100206.44;;;5.03;80.39
74794;BME280;63320;50.768;6.724;2022-12-07T13:14:41;100202.97;;;5.02;80.30